createdAt,value
2023-03-10T00:00:09.991Z,6.43
2023-03-10T00:02:45.413Z,5.07
2023-03-10T00:05:17.917Z,6.15
2023-03-10T00:07:46.906Z,5.95
2023-03-10T00:10:32.807Z,3.38
2023-03-10T00:12:59.965Z,4.13
2023-03-10T00:15:28.435Z,3.17
2023-03-10T00:17:57.167Z,3.50
2023-03-10T00:20:30.449Z,4.20
2023-03-10T00:23:10.162Z,7.28
2023-03-10T00:25:43.799Z,6.07
2023-03-10T00:28:12.425Z,7.18
2023-03-10T00:30:40.464Z,3.67
2023-03-10T00:35:37.458Z,3.17
2023-03-10T00:38:19.282Z,4.25
2023-03-10T00:40:46.225Z,5.35
2023-03-10T00:43:17.175Z,2.42
2023-03-10T00:45:45.162Z,4.05
2023-03-10T00:50:45.262Z,4.05
2023-03-10T00:53:13.679Z,3.70
2023-03-10T00:55:45.483Z,2.95
2023-03-10T00:58:16.117Z,2.88
2023-03-10T01:00:45.790Z,3.63
2023-03-10T01:03:16.473Z,5.10
2023-03-10T01:08:26.651Z,2.50
2023-03-10T01:10:58.748Z,2.22
2023-03-10T01:13:41.012Z,4.25
2023-03-10T01:16:11.614Z,2.72
2023-03-10T01:18:50.104Z,3.40
2023-03-10T01:21:36.470Z,2.83
2023-03-10T01:24:05.746Z,4.78
2023-03-10T01:26:35.117Z,3.53
2023-03-10T01:29:06.015Z,3.83
2023-03-10T01:31:46.453Z,3.95
2023-03-10T01:34:23.520Z,3.67
2023-03-10T01:36:57.153Z,3.65
2023-03-10T01:39:29.116Z,3.17
2023-03-10T01:42:00.967Z,4.10
2023-03-10T01:44:28.573Z,3.40
2023-03-10T01:46:57.721Z,2.25
2023-03-10T01:49:32.774Z,2.88
2023-03-10T01:52:19.961Z,2.60
2023-03-10T01:57:50.191Z,2.50
2023-03-10T02:00:20.235Z,3.10
2023-03-10T02:03:22.113Z,3.45
2023-03-10T02:06:02.692Z,2.60
2023-03-10T02:08:47.670Z,2.80
2023-03-10T02:11:24.510Z,2.47
2023-03-10T02:14:08.167Z,2.77
2023-03-10T02:16:40.629Z,3.40
2023-03-10T02:19:21.329Z,2.22
2023-03-10T02:22:21.209Z,4.05
2023-03-10T02:25:07.349Z,2.05
2023-03-10T02:27:37.790Z,3.95
2023-03-10T02:30:10.295Z,3.97
2023-03-10T02:32:51.668Z,1.58
2023-03-10T02:35:26.856Z,2.95
2023-03-10T02:38:06.089Z,2.15
2023-03-10T02:41:00.572Z,1.85
2023-03-10T02:43:45.164Z,2.15
2023-03-10T02:46:14.960Z,2.88
2023-03-10T02:48:48.348Z,2.35
2023-03-10T02:51:45.086Z,2.15
2023-03-10T02:54:18.437Z,2.75
2023-03-10T02:56:47.930Z,1.38
2023-03-10T02:59:17.711Z,3.47
2023-03-10T03:01:45.657Z,2.60
2023-03-10T03:06:49.243Z,3.35
2023-03-10T03:12:06.218Z,2.00
2023-03-10T03:14:38.338Z,4.13
2023-03-10T03:17:17.329Z,3.45
2023-03-10T03:20:04.384Z,3.60
2023-03-10T03:22:36.432Z,3.38
2023-03-10T03:27:59.522Z,2.22
2023-03-10T03:30:34.088Z,1.30
2023-03-10T03:33:04.682Z,2.90
2023-03-10T03:35:38.121Z,2.10
2023-03-10T03:38:16.688Z,1.67
2023-03-10T03:40:48.830Z,3.78
2023-03-10T03:43:18.479Z,2.97
2023-03-10T03:45:48.417Z,2.88
2023-03-10T03:48:17.500Z,4.47
2023-03-10T03:50:46.012Z,2.60
2023-03-10T03:53:15.405Z,2.08
2023-03-10T03:55:54.141Z,8.13
2023-03-10T03:58:23.400Z,3.45
2023-03-10T04:00:55.208Z,2.83
2023-03-10T04:03:27.302Z,3.83
2023-03-10T04:06:01.719Z,3.15
2023-03-10T04:11:18.195Z,2.47
2023-03-10T04:13:53.175Z,3.35
2023-03-10T04:16:30.245Z,2.85
2023-03-10T04:18:58.966Z,4.18
2023-03-10T04:21:26.222Z,2.78
2023-03-10T04:23:52.970Z,2.13
2023-03-10T04:26:24.690Z,2.88
2023-03-10T04:28:53.519Z,6.07
2023-03-10T04:31:21.549Z,1.88
2023-03-10T04:33:48.824Z,4.45
2023-03-10T04:36:16.771Z,2.97
2023-03-10T04:41:11.216Z,2.63
2023-03-10T04:43:39.608Z,4.90
2023-03-10T04:46:08.227Z,2.28
2023-03-10T04:48:35.562Z,2.53
2023-03-10T04:51:06.670Z,2.55
2023-03-10T04:53:34.505Z,3.35
2023-03-10T04:56:04.402Z,3.60
2023-03-10T04:58:31.876Z,4.63
2023-03-10T05:01:03.553Z,3.50
2023-03-10T05:03:30.740Z,3.90
2023-03-10T05:05:58.045Z,3.03
2023-03-10T05:08:24.830Z,2.88
2023-03-10T05:10:52.126Z,5.07
2023-03-10T05:13:19.264Z,4.15
2023-03-10T05:15:47.116Z,3.92
2023-03-10T05:18:14.500Z,4.43
2023-03-10T05:20:42.321Z,4.82
2023-03-10T05:23:11.818Z,5.95
2023-03-10T05:25:40.548Z,3.15
2023-03-10T05:28:08.080Z,3.03
2023-03-10T05:30:35.486Z,4.80
2023-03-10T05:33:03.139Z,3.55
2023-03-10T05:35:33.667Z,3.15
2023-03-10T05:38:00.611Z,3.38
2023-03-10T05:40:28.148Z,3.60
2023-03-10T05:42:57.718Z,3.80
2023-03-10T05:45:25.119Z,3.90
2023-03-10T05:47:52.662Z,5.47
2023-03-10T05:50:20.976Z,7.85
2023-03-10T05:52:47.863Z,2.47
2023-03-10T05:55:16.916Z,3.70
2023-03-10T05:57:44.942Z,4.30
2023-03-10T06:02:40.220Z,5.35
2023-03-10T06:05:11.292Z,7.63
2023-03-10T06:07:39.453Z,7.88
2023-03-10T06:12:35.743Z,6.57
2023-03-10T06:15:02.918Z,6.53
2023-03-10T06:17:31.753Z,6.22
2023-03-10T06:19:58.891Z,5.20
2023-03-10T06:22:26.306Z,5.38
2023-03-10T06:24:53.363Z,5.40
2023-03-10T06:27:23.449Z,5.07
2023-03-10T06:29:58.923Z,5.00
2023-03-10T06:32:26.002Z,7.00
2023-03-10T06:34:53.396Z,6.75
2023-03-10T06:37:20.318Z,7.65
2023-03-10T06:39:49.777Z,6.85
2023-03-10T06:42:16.610Z,7.65
2023-03-10T06:44:45.479Z,9.10
2023-03-10T06:47:13.387Z,6.30
2023-03-10T06:49:40.435Z,11.53
2023-03-10T06:52:07.719Z,11.50
2023-03-10T06:54:34.949Z,11.07
2023-03-10T06:57:02.512Z,13.20
2023-03-10T06:59:35.196Z,12.75
2023-03-10T07:02:02.552Z,12.68
2023-03-10T07:04:30.016Z,13.13
2023-03-10T07:06:57.688Z,12.93
2023-03-10T07:09:27.418Z,11.57
2023-03-10T07:11:54.444Z,13.27
2023-03-10T07:14:21.641Z,14.10
2023-03-10T07:16:51.040Z,11.20
2023-03-10T07:19:18.229Z,14.40
2023-03-10T07:21:47.011Z,14.27
2023-03-10T07:24:14.309Z,9.65
2023-03-10T07:26:44.089Z,10.82
2023-03-10T07:29:11.206Z,11.23
2023-03-10T07:31:38.378Z,10.68
2023-03-10T07:34:05.304Z,11.10
2023-03-10T07:36:32.230Z,8.68
2023-03-10T07:38:59.058Z,11.10
2023-03-10T07:41:26.175Z,9.45
2023-03-10T07:43:54.818Z,14.60
2023-03-10T07:46:22.802Z,10.52
2023-03-10T07:48:50.004Z,15.38
2023-03-10T07:51:16.935Z,11.10
2023-03-10T07:53:43.647Z,14.52
2023-03-10T07:56:12.807Z,13.27
2023-03-10T07:58:40.818Z,13.73
2023-03-10T08:01:14.006Z,12.40
2023-03-10T08:03:41.431Z,12.45
2023-03-10T08:06:08.899Z,22.08
2023-03-10T08:08:35.885Z,11.88
2023-03-10T08:11:10.183Z,12.47
2023-03-10T08:13:38.217Z,13.50
2023-03-10T08:16:06.559Z,12.65
2023-03-10T08:18:34.388Z,19.17
2023-03-10T08:21:05.313Z,11.90
2023-03-10T08:23:33.170Z,14.05
2023-03-10T08:28:37.578Z,7.95
2023-03-10T08:31:14.789Z,11.38
2023-03-10T08:33:45.961Z,13.88
2023-03-10T08:36:20.895Z,14.00
2023-03-10T08:38:48.310Z,12.27
2023-03-10T08:41:22.793Z,12.48
2023-03-10T08:43:51.791Z,11.57
2023-03-10T08:46:21.723Z,10.93
2023-03-10T08:48:48.883Z,9.25
2023-03-10T08:51:16.606Z,8.98
2023-03-10T08:53:47.053Z,7.97
2023-03-10T08:56:16.461Z,5.10
2023-03-10T08:58:47.108Z,3.30
2023-03-10T09:01:16.448Z,4.78
2023-03-10T09:03:46.302Z,3.35
2023-03-10T09:06:17.212Z,3.13
2023-03-10T09:11:32.579Z,8.00
2023-03-10T09:14:12.720Z,6.78
2023-03-10T09:16:40.930Z,6.03
2023-03-10T09:19:11.421Z,5.05
2023-03-10T09:21:40.353Z,4.85
2023-03-10T09:24:10.885Z,4.18
2023-03-10T09:26:42.811Z,3.42
2023-03-10T09:29:12.160Z,2.70
2023-03-10T09:31:46.862Z,1.95
2023-03-10T09:34:14.479Z,1.77
2023-03-10T09:36:41.439Z,1.77
2023-03-10T09:39:08.249Z,0.73
2023-03-10T09:41:53.193Z,1.93
2023-03-10T09:44:23.060Z,1.50
2023-03-10T09:47:08.253Z,1.23
2023-03-10T09:50:14.140Z,1.58
2023-03-10T09:52:54.610Z,0.63
2023-03-10T09:55:42.359Z,0.88
2023-03-10T09:58:39.912Z,0.73
2023-03-10T10:01:16.693Z,0.90
2023-03-10T10:03:53.323Z,1.63
2023-03-10T10:06:34.300Z,1.38
2023-03-10T10:09:07.336Z,1.25
2023-03-10T10:11:37.607Z,2.25
2023-03-10T10:14:29.237Z,2.95
2023-03-10T10:20:23.377Z,2.20
2023-03-10T10:22:50.364Z,4.13
2023-03-10T10:25:25.930Z,2.17
2023-03-10T10:27:55.381Z,0.63
2023-03-10T10:30:34.492Z,1.15
2023-03-10T10:33:15.195Z,2.05
2023-03-10T10:36:01.557Z,2.15
2023-03-10T10:38:30.708Z,1.75
2023-03-10T10:41:18.485Z,1.52
2023-03-10T10:43:50.782Z,2.25
2023-03-10T10:46:26.633Z,3.00
2023-03-10T10:49:22.395Z,1.92
2023-03-10T10:52:06.615Z,1.50
2023-03-10T10:54:39.437Z,1.88
2023-03-10T10:57:19.463Z,7.85
2023-03-10T10:59:46.569Z,1.95
2023-03-10T11:02:40.276Z,1.48
2023-03-10T11:05:17.404Z,2.13
2023-03-10T11:07:45.664Z,0.88
2023-03-10T11:10:26.755Z,1.63
2023-03-10T11:13:10.495Z,2.05
2023-03-10T11:16:04.714Z,2.65
2023-03-10T11:18:39.397Z,1.63
2023-03-10T11:21:18.199Z,2.00
2023-03-10T11:24:23.139Z,2.30
2023-03-10T11:27:24.489Z,2.08
2023-03-10T11:30:00.743Z,1.55
2023-03-10T11:32:45.161Z,2.30
2023-03-10T11:35:39.300Z,1.30
2023-03-10T11:38:37.441Z,2.13
2023-03-10T11:41:21.001Z,2.05
2023-03-10T11:43:57.145Z,1.48
2023-03-10T11:46:31.262Z,5.95
2023-03-10T11:49:06.471Z,4.03
2023-03-10T11:51:48.462Z,5.53
2023-03-10T11:54:19.837Z,5.28
2023-03-10T11:56:50.296Z,5.47
2023-03-10T11:59:27.677Z,3.15
2023-03-10T12:02:10.221Z,1.10
2023-03-10T12:05:07.347Z,2.67
2023-03-10T12:07:44.614Z,1.00
2023-03-10T12:10:12.181Z,2.25
2023-03-10T12:12:44.745Z,2.50
2023-03-10T12:15:21.027Z,1.35
2023-03-10T12:17:51.998Z,2.58
2023-03-10T12:20:19.626Z,3.78
2023-03-10T12:23:01.433Z,3.90
2023-03-10T12:25:28.090Z,1.67
2023-03-10T12:28:16.865Z,1.73
2023-03-10T12:31:10.755Z,3.88
2023-03-10T12:33:43.903Z,1.95
2023-03-10T12:36:30.208Z,1.30
2023-03-10T12:42:49.577Z,2.40
2023-03-10T12:45:31.096Z,3.03
2023-03-10T12:48:10.545Z,2.40
2023-03-10T12:50:57.007Z,1.23
2023-03-10T12:54:33.336Z,2.80
2023-03-10T12:57:50.120Z,1.55
2023-03-10T13:04:17.479Z,3.63
2023-03-10T13:06:47.917Z,1.63
2023-03-10T13:09:33.895Z,2.20
2023-03-10T13:12:05.096Z,3.92
2023-03-10T13:14:44.562Z,2.70
2023-03-10T13:17:26.374Z,8.70
2023-03-10T13:19:59.529Z,2.75
2023-03-10T13:22:27.032Z,2.72
2023-03-10T13:25:12.217Z,9.70
2023-03-10T13:27:42.691Z,4.88
2023-03-10T13:30:24.473Z,2.92
2023-03-10T13:32:53.165Z,5.07
2023-03-10T13:35:53.404Z,4.90
2023-03-10T13:38:22.185Z,3.55
2023-03-10T13:41:16.966Z,4.72
2023-03-10T13:43:50.193Z,2.70
2023-03-10T13:46:20.657Z,5.45
2023-03-10T13:48:51.687Z,2.67
2023-03-10T13:51:35.580Z,2.22
2023-03-10T13:54:36.125Z,5.88
2023-03-10T13:57:34.898Z,4.97
2023-03-10T14:00:10.049Z,2.58
2023-03-10T14:05:48.904Z,3.15
2023-03-10T14:08:22.276Z,2.58
2023-03-10T14:10:49.627Z,3.50
2023-03-10T14:13:42.028Z,4.15
2023-03-10T14:16:10.409Z,4.35
2023-03-10T14:18:39.905Z,2.88
2023-03-10T14:21:33.873Z,2.88
2023-03-10T14:24:07.504Z,2.90
2023-03-10T14:26:34.647Z,5.32
2023-03-10T14:29:04.418Z,5.72
2023-03-10T14:31:31.381Z,5.68
2023-03-10T14:33:58.340Z,2.63
2023-03-10T14:36:29.029Z,2.85
2023-03-10T14:38:56.021Z,7.80
2023-03-10T14:41:34.608Z,4.20
2023-03-10T14:44:17.841Z,8.05
2023-03-10T14:46:51.739Z,6.15
2023-03-10T14:49:28.072Z,4.32
2023-03-10T14:51:58.646Z,2.90
2023-03-10T14:57:13.850Z,3.83
2023-03-10T14:59:58.169Z,5.35
2023-03-10T15:02:47.226Z,2.38
2023-03-10T15:05:45.367Z,8.52
2023-03-10T15:08:14.383Z,8.23
2023-03-10T15:10:42.732Z,3.65
2023-03-10T15:13:13.731Z,7.80
2023-03-10T15:15:44.340Z,5.82
2023-03-10T15:18:14.912Z,3.08
2023-03-10T15:20:42.080Z,4.60
2023-03-10T15:23:09.924Z,3.33
2023-03-10T15:25:49.411Z,3.00
2023-03-10T15:28:24.428Z,3.38
2023-03-10T15:30:52.301Z,4.38
2023-03-10T15:35:56.151Z,2.47
2023-03-10T15:38:23.391Z,4.13
2023-03-10T15:40:51.256Z,3.25
2023-03-10T15:45:52.264Z,3.03
2023-03-10T15:48:19.367Z,3.55
2023-03-10T15:50:54.996Z,8.63
2023-03-10T15:53:24.182Z,4.03
2023-03-10T15:55:53.917Z,6.68
2023-03-10T15:58:54.683Z,5.90
2023-03-10T16:01:23.360Z,5.38
2023-03-10T16:03:50.567Z,3.47
2023-03-10T16:06:18.898Z,3.90
2023-03-10T16:09:27.131Z,3.28
2023-03-10T16:11:57.594Z,5.22
2023-03-10T16:14:27.596Z,6.45
2023-03-10T16:17:01.614Z,5.50
2023-03-10T16:19:31.725Z,6.25
2023-03-10T16:25:10.938Z,3.80
2023-03-10T16:28:16.065Z,3.20
2023-03-10T16:31:09.045Z,2.38
2023-03-10T16:33:46.552Z,4.43
2023-03-10T16:39:05.233Z,5.50
2023-03-10T16:45:15.951Z,8.35
2023-03-10T16:48:24.479Z,5.28
2023-03-10T16:50:44.007Z,8.38
2023-03-10T16:53:21.716Z,8.40
2023-03-10T16:55:55.154Z,5.97
2023-03-10T16:58:26.032Z,3.97
2023-03-10T17:01:00.598Z,4.93
2023-03-10T17:04:39.392Z,5.88
2023-03-10T17:07:08.291Z,3.90
2023-03-10T17:09:42.652Z,4.47
2023-03-10T17:12:11.298Z,6.40
2023-03-10T17:14:42.940Z,4.88
2023-03-10T17:17:23.219Z,6.00
2023-03-10T17:20:14.236Z,6.10
2023-03-10T17:22:54.408Z,7.50
2023-03-10T17:25:58.083Z,6.35
2023-03-10T17:28:25.699Z,6.53
2023-03-10T17:31:36.326Z,3.47
2023-03-10T17:35:09.008Z,5.68
2023-03-10T17:37:37.280Z,3.47
2023-03-10T17:43:33.256Z,5.00
2023-03-10T17:46:13.980Z,13.57
2023-03-10T17:48:43.033Z,4.53
2023-03-10T17:51:44.969Z,4.30
2023-03-10T17:54:42.355Z,4.18
2023-03-10T18:00:23.025Z,6.70
2023-03-10T18:03:07.158Z,11.77
2023-03-10T18:05:50.790Z,5.50
2023-03-10T18:08:20.876Z,6.07
2023-03-10T18:11:10.672Z,5.55
2023-03-10T18:15:33.736Z,4.18
2023-03-10T18:24:35.154Z,4.57
2023-03-10T18:31:25.854Z,7.18
2023-03-10T18:35:14.208Z,8.73
2023-03-10T18:37:47.388Z,10.95
2023-03-10T18:44:25.534Z,3.88
2023-03-10T18:46:52.578Z,12.05
2023-03-10T18:49:20.259Z,6.13
2023-03-10T18:51:53.762Z,3.65
2023-03-10T18:54:24.868Z,3.70
2023-03-10T18:57:00.922Z,4.38
2023-03-10T19:02:31.805Z,4.90
2023-03-10T19:05:34.134Z,14.35
2023-03-10T19:08:18.555Z,4.93
2023-03-10T19:08:45.336Z,3.25
2023-03-10T19:11:11.086Z,6.32
2023-03-10T19:13:55.174Z,4.25
2023-03-10T19:19:54.400Z,4.97
2023-03-10T19:21:02.685Z,4.68
2023-03-10T19:26:27.195Z,3.47
2023-03-10T19:32:51.610Z,5.30
2023-03-10T19:35:38.044Z,4.35
2023-03-10T19:38:18.001Z,3.58
2023-03-10T19:40:54.094Z,6.43
2023-03-10T19:47:32.684Z,15.38
2023-03-10T19:49:01.938Z,5.47
2023-03-10T19:50:33.735Z,13.35
2023-03-10T19:53:46.943Z,43.42
2023-03-10T19:56:41.648Z,41.45
2023-03-10T20:05:49.671Z,11.02
2023-03-10T20:08:23.430Z,4.47
2023-03-10T20:19:33.502Z,4.22
2023-03-10T20:27:52.822Z,6.65
2023-03-10T20:34:27.904Z,4.70
2023-03-10T20:37:27.447Z,4.13
2023-03-10T20:53:58.403Z,6.78
2023-03-10T20:56:25.190Z,7.55
2023-03-10T20:59:00.315Z,6.95
2023-03-10T21:01:55.702Z,6.25
2023-03-10T21:04:26.871Z,3.72
2023-03-10T21:06:59.002Z,4.55
2023-03-10T21:11:07.450Z,3.33
2023-03-10T21:12:21.874Z,4.68
2023-03-10T21:15:25.068Z,3.25
2023-03-10T21:18:53.783Z,2.42
2023-03-10T21:22:44.540Z,5.88
2023-03-10T21:24:31.789Z,8.32
2023-03-10T21:27:36.012Z,5.50
2023-03-10T21:38:06.237Z,5.80
2023-03-10T21:55:41.788Z,5.88
2023-03-10T21:58:33.381Z,4.60
2023-03-10T22:02:26.572Z,3.80
2023-03-10T22:05:12.203Z,2.83
2023-03-10T22:08:20.243Z,4.65
2023-03-10T22:14:06.156Z,5.82
2023-03-10T22:17:05.673Z,3.22
2023-03-10T22:19:33.630Z,1.83
2023-03-10T22:22:10.559Z,7.72
2023-03-10T22:25:08.765Z,3.50
2023-03-10T22:28:37.682Z,4.05
2023-03-10T22:32:03.943Z,4.90
2023-03-10T22:37:37.022Z,2.38
2023-03-10T22:40:14.101Z,2.08
2023-03-10T22:43:22.292Z,1.88
2023-03-10T22:46:21.150Z,3.15
2023-03-10T22:48:58.202Z,3.22
2023-03-10T22:51:25.385Z,3.88
2023-03-10T22:55:22.344Z,2.90
2023-03-10T22:57:09.002Z,2.75
2023-03-10T23:00:04.396Z,4.97
2023-03-10T23:03:27.016Z,3.55
2023-03-10T23:05:58.676Z,3.75
2023-03-10T23:09:05.279Z,2.53
2023-03-10T23:12:13.294Z,3.78
2023-03-10T23:14:42.283Z,1.33
2023-03-10T23:17:09.669Z,3.38
2023-03-10T23:21:05.842Z,2.85
2023-03-10T23:26:53.253Z,2.40
2023-03-10T23:32:58.923Z,2.80
2023-03-10T23:34:17.713Z,2.45
2023-03-10T23:39:28.445Z,1.85
2023-03-10T23:42:13.583Z,2.25
2023-03-10T23:44:46.150Z,2.42
2023-03-10T23:52:27.477Z,1.70
2023-03-10T23:59:48.311Z,3.13
